createdAt,value
2023-08-02T00:01:09.015Z,4.18
2023-08-02T00:03:35.794Z,3.50
2023-08-02T00:06:02.675Z,5.55
2023-08-02T00:08:30.265Z,4.35
2023-08-02T00:10:57.206Z,4.88
2023-08-02T00:13:23.903Z,4.30
2023-08-02T00:15:53.664Z,4.68
2023-08-02T00:18:20.578Z,5.72
2023-08-02T00:20:48.422Z,4.13
2023-08-02T00:23:15.631Z,3.75
2023-08-02T00:25:42.293Z,3.67
2023-08-02T00:28:08.939Z,4.15
2023-08-02T00:30:44.942Z,5.95
2023-08-02T00:33:12.172Z,4.18
2023-08-02T00:35:47.950Z,4.45
2023-08-02T00:38:14.968Z,5.05
2023-08-02T00:40:41.934Z,7.05
2023-08-02T00:43:08.661Z,4.82
2023-08-02T00:45:36.910Z,4.32
2023-08-02T00:48:04.021Z,5.07
2023-08-02T00:50:34.379Z,4.82
2023-08-02T00:53:01.305Z,4.90
2023-08-02T00:55:28.426Z,2.90
2023-08-02T00:57:55.045Z,3.72
2023-08-02T01:00:21.949Z,4.18
2023-08-02T01:02:48.672Z,4.75
2023-08-02T01:05:15.520Z,5.05
2023-08-02T01:07:52.668Z,4.78
2023-08-02T01:10:43.617Z,3.67
2023-08-02T01:13:15.071Z,3.83
2023-08-02T01:15:42.221Z,3.58
2023-08-02T01:18:09.626Z,3.78
2023-08-02T01:20:36.499Z,6.63
2023-08-02T01:23:03.112Z,5.68
2023-08-02T01:25:32.594Z,4.15
2023-08-02T01:28:03.365Z,4.40
2023-08-02T01:30:34.873Z,5.30
2023-08-02T01:33:01.651Z,4.75
2023-08-02T01:35:28.968Z,4.85
2023-08-02T01:37:56.142Z,5.38
2023-08-02T01:40:22.955Z,4.55
2023-08-02T01:42:49.633Z,7.00
2023-08-02T01:45:16.295Z,5.43
2023-08-02T01:47:42.971Z,4.28
2023-08-02T01:50:09.927Z,7.60
2023-08-02T01:52:36.573Z,4.45
2023-08-02T01:55:03.270Z,5.93
2023-08-02T01:57:29.912Z,7.95
2023-08-02T01:59:57.062Z,6.00
2023-08-02T02:02:23.756Z,6.53
2023-08-02T02:04:52.160Z,8.80
2023-08-02T02:07:18.905Z,7.22
2023-08-02T02:09:45.537Z,9.07
2023-08-02T02:12:12.219Z,7.22
2023-08-02T02:14:38.800Z,5.25
2023-08-02T02:17:05.462Z,6.53
2023-08-02T02:19:32.094Z,7.57
2023-08-02T02:21:58.734Z,9.13
2023-08-02T02:24:25.445Z,6.07
2023-08-02T02:26:52.037Z,7.95
2023-08-02T02:29:18.666Z,7.70
2023-08-02T02:31:45.288Z,7.45
2023-08-02T02:34:12.064Z,6.75
2023-08-02T02:36:39.939Z,10.52
2023-08-02T02:39:06.909Z,7.00
2023-08-02T02:41:33.544Z,8.02
2023-08-02T02:44:00.123Z,9.15
2023-08-02T02:46:26.728Z,8.02
2023-08-02T02:48:53.668Z,7.38
2023-08-02T02:51:20.291Z,9.32
2023-08-02T02:53:46.911Z,7.97
2023-08-02T02:56:13.615Z,9.82
2023-08-02T02:58:40.191Z,10.15
2023-08-02T03:01:06.839Z,9.63
2023-08-02T03:03:33.588Z,9.27
2023-08-02T03:06:00.505Z,7.93
2023-08-02T03:08:27.123Z,7.85
2023-08-02T03:10:53.821Z,7.32
2023-08-02T03:13:20.398Z,9.63
2023-08-02T03:15:46.972Z,8.82
2023-08-02T03:18:13.714Z,7.50
2023-08-02T03:20:40.895Z,8.18
2023-08-02T03:23:08.675Z,7.82
2023-08-02T03:25:35.435Z,7.88
2023-08-02T03:28:02.086Z,7.07
2023-08-02T03:30:28.703Z,9.25
2023-08-02T03:32:55.494Z,7.35
2023-08-02T03:35:22.170Z,10.00
2023-08-02T03:37:48.756Z,9.10
2023-08-02T03:40:15.400Z,7.80
2023-08-02T03:42:42.076Z,7.35
2023-08-02T03:45:09.059Z,10.18
2023-08-02T03:47:35.724Z,8.63
2023-08-02T03:50:02.402Z,11.27
2023-08-02T03:52:29.035Z,11.68
2023-08-02T03:54:55.775Z,12.10
2023-08-02T03:57:22.430Z,9.50
2023-08-02T03:59:49.012Z,9.88
2023-08-02T04:02:15.763Z,12.93
2023-08-02T04:04:44.344Z,10.43
2023-08-02T04:07:11.217Z,10.45
2023-08-02T04:09:37.872Z,7.25
2023-08-02T04:12:05.029Z,9.07
2023-08-02T04:14:31.695Z,9.93
2023-08-02T04:16:58.324Z,8.40
2023-08-02T04:19:26.842Z,11.57
2023-08-02T04:21:53.451Z,12.13
2023-08-02T04:24:20.211Z,10.80
2023-08-02T04:26:46.801Z,12.95
2023-08-02T04:29:13.500Z,9.40
2023-08-02T04:31:40.315Z,11.70
2023-08-02T04:34:07.109Z,9.07
2023-08-02T04:36:33.775Z,8.95
2023-08-02T04:39:03.457Z,9.25
2023-08-02T04:41:30.222Z,8.85
2023-08-02T04:43:56.893Z,9.15
2023-08-02T04:46:26.768Z,7.47
2023-08-02T04:48:53.598Z,9.40
2023-08-02T04:51:20.377Z,14.23
2023-08-02T04:53:49.616Z,9.75
2023-08-02T04:56:16.643Z,8.18
2023-08-02T04:58:43.565Z,6.45
2023-08-02T05:01:10.358Z,8.00
2023-08-02T05:03:37.508Z,7.20
2023-08-02T05:06:06.730Z,5.85
2023-08-02T05:08:37.372Z,7.70
2023-08-02T05:11:09.987Z,7.40
2023-08-02T05:13:36.742Z,7.05
2023-08-02T05:16:03.540Z,6.88
2023-08-02T05:18:30.212Z,7.15
2023-08-02T05:20:56.861Z,6.63
2023-08-02T05:23:23.522Z,6.65
2023-08-02T05:25:50.174Z,6.07
2023-08-02T05:28:16.908Z,12.70
2023-08-02T05:30:43.706Z,8.90
2023-08-02T05:33:10.395Z,8.63
2023-08-02T05:35:37.068Z,8.43
2023-08-02T05:38:04.150Z,6.32
2023-08-02T05:40:30.764Z,8.45
2023-08-02T05:42:57.919Z,10.35
2023-08-02T05:45:25.333Z,8.45
2023-08-02T05:47:52.236Z,8.13
2023-08-02T05:50:18.975Z,7.82
2023-08-02T05:52:45.683Z,7.32
2023-08-02T05:55:13.423Z,8.48
2023-08-02T05:57:40.701Z,6.32
2023-08-02T06:00:08.515Z,9.48
2023-08-02T06:02:35.717Z,5.60
2023-08-02T06:05:02.930Z,7.82
2023-08-02T06:07:30.988Z,10.35
2023-08-02T06:09:57.656Z,12.02
2023-08-02T06:12:24.467Z,8.07
2023-08-02T06:14:51.121Z,8.25
2023-08-02T06:17:18.086Z,8.20
2023-08-02T06:19:44.847Z,9.60
2023-08-02T06:22:11.890Z,6.45
2023-08-02T06:24:38.625Z,8.65
2023-08-02T06:27:05.589Z,8.77
2023-08-02T06:29:33.026Z,7.63
2023-08-02T06:32:02.007Z,8.90
2023-08-02T06:34:31.352Z,7.07
2023-08-02T06:36:58.222Z,8.95
2023-08-02T06:39:25.362Z,9.05
2023-08-02T06:41:51.982Z,10.07
2023-08-02T06:44:19.519Z,6.55
2023-08-02T06:46:46.272Z,10.15
2023-08-02T06:49:12.981Z,9.40
2023-08-02T06:51:39.882Z,7.22
2023-08-02T06:54:06.883Z,9.13
2023-08-02T06:56:38.657Z,7.88
2023-08-02T06:59:05.554Z,7.63
2023-08-02T07:01:32.245Z,12.57
2023-08-02T07:03:58.885Z,7.30
2023-08-02T07:06:27.987Z,7.50
2023-08-02T07:08:55.017Z,7.00
2023-08-02T07:11:35.760Z,7.97
2023-08-02T07:14:15.808Z,9.25
2023-08-02T07:16:50.795Z,7.65
2023-08-02T07:19:20.202Z,10.52
2023-08-02T07:21:49.354Z,9.07
2023-08-02T07:24:17.465Z,9.18
2023-08-02T07:26:44.096Z,7.80
2023-08-02T07:29:15.232Z,8.98
2023-08-02T07:31:42.191Z,9.10
2023-08-02T07:34:09.034Z,10.95
2023-08-02T07:36:37.624Z,7.47
2023-08-02T07:39:04.370Z,10.48
2023-08-02T07:41:31.977Z,8.10
2023-08-02T07:43:58.597Z,7.85
2023-08-02T07:46:25.387Z,8.38
2023-08-02T07:48:53.129Z,8.20
2023-08-02T07:51:20.613Z,8.35
2023-08-02T07:53:47.807Z,7.88
2023-08-02T07:56:14.498Z,7.28
2023-08-02T07:58:41.166Z,7.50
2023-08-02T08:01:09.236Z,7.93
2023-08-02T08:03:36.799Z,11.70
2023-08-02T08:06:13.810Z,7.82
2023-08-02T08:08:41.327Z,10.15
2023-08-02T08:11:07.981Z,8.07
2023-08-02T08:13:34.743Z,7.97
2023-08-02T08:16:02.348Z,8.70
2023-08-02T08:18:31.145Z,10.82
2023-08-02T08:20:58.371Z,5.45
2023-08-02T08:23:25.004Z,6.53
2023-08-02T08:25:51.606Z,7.60
2023-08-02T08:28:18.857Z,8.15
2023-08-02T08:30:45.754Z,9.10
2023-08-02T08:33:12.366Z,9.02
2023-08-02T08:35:39.070Z,5.28
2023-08-02T08:38:05.711Z,6.78
2023-08-02T08:40:33.507Z,7.03
2023-08-02T08:43:01.753Z,7.47
2023-08-02T08:45:29.131Z,7.60
2023-08-02T08:47:55.776Z,7.28
2023-08-02T08:50:23.493Z,5.05
2023-08-02T08:52:53.906Z,7.25
2023-08-02T08:55:22.424Z,6.28
2023-08-02T08:57:51.534Z,7.35
2023-08-02T09:00:19.152Z,5.95
2023-08-02T09:02:47.713Z,6.95
2023-08-02T09:05:14.800Z,6.38
2023-08-02T09:07:41.415Z,7.75
2023-08-02T09:10:08.609Z,8.02
2023-08-02T09:12:46.185Z,7.20
2023-08-02T09:15:15.421Z,5.75
2023-08-02T09:17:53.105Z,8.50
2023-08-02T09:20:22.113Z,5.50
2023-08-02T09:22:48.847Z,7.47
2023-08-02T09:25:24.707Z,6.68
2023-08-02T09:27:52.876Z,5.72
2023-08-02T09:30:36.001Z,7.60
2023-08-02T09:33:04.396Z,7.40
2023-08-02T09:35:46.208Z,5.82
2023-08-02T09:38:12.937Z,6.47
2023-08-02T09:41:09.844Z,7.38
2023-08-02T09:43:28.647Z,7.57
2023-08-02T09:45:56.038Z,12.02
2023-08-02T09:48:35.181Z,11.18
2023-08-02T09:51:04.788Z,11.07
2023-08-02T09:53:32.396Z,10.75
2023-08-02T09:56:01.770Z,8.20
2023-08-02T09:58:31.884Z,9.02
2023-08-02T10:01:00.070Z,8.90
2023-08-02T10:03:28.912Z,9.38
2023-08-02T10:05:59.422Z,9.90
2023-08-02T10:08:30.971Z,9.13
2023-08-02T10:10:59.233Z,13.57
2023-08-02T10:13:27.828Z,8.77
2023-08-02T10:15:56.957Z,9.40
2023-08-02T10:18:26.044Z,9.40
2023-08-02T10:20:54.128Z,6.60
2023-08-02T10:23:20.748Z,7.30
2023-08-02T10:25:48.684Z,10.70
2023-08-02T10:28:16.343Z,7.70
2023-08-02T10:30:43.282Z,6.72
2023-08-02T10:33:22.105Z,9.50
2023-08-02T10:36:08.739Z,6.20
2023-08-02T10:38:41.216Z,8.43
2023-08-02T10:41:12.812Z,7.80
2023-08-02T10:43:54.480Z,12.50
2023-08-02T10:46:29.551Z,9.23
2023-08-02T10:49:19.001Z,8.60
2023-08-02T10:51:46.642Z,7.60
2023-08-02T10:54:24.324Z,8.98
2023-08-02T10:56:54.418Z,9.95
2023-08-02T10:59:24.072Z,6.72
2023-08-02T11:01:58.509Z,10.35
2023-08-02T11:04:26.181Z,7.18
2023-08-02T11:06:53.371Z,7.35
2023-08-02T11:09:31.108Z,7.90
2023-08-02T11:11:57.706Z,6.63
2023-08-02T11:14:28.363Z,6.10
2023-08-02T11:16:55.576Z,7.72
2023-08-02T11:19:23.666Z,8.10
2023-08-02T11:21:55.452Z,9.55
2023-08-02T11:24:25.649Z,6.70
2023-08-02T11:26:56.437Z,4.50
2023-08-02T11:29:23.532Z,6.90
2023-08-02T11:31:51.967Z,7.13
2023-08-02T11:34:20.383Z,9.35
2023-08-02T11:36:49.901Z,8.00
2023-08-02T11:39:18.499Z,6.03
2023-08-02T11:41:45.437Z,7.53
2023-08-02T11:44:19.746Z,7.20
2023-08-02T11:46:56.979Z,6.68
2023-08-02T11:49:24.491Z,6.47
2023-08-02T11:51:51.235Z,7.25
2023-08-02T11:54:18.190Z,10.20
2023-08-02T11:56:45.813Z,10.30
2023-08-02T11:59:13.387Z,6.20
2023-08-02T12:01:43.779Z,8.18
2023-08-02T12:04:10.634Z,7.55
2023-08-02T12:06:53.862Z,7.43
2023-08-02T12:09:38.809Z,6.80
2023-08-02T12:12:06.072Z,8.90
2023-08-02T12:14:34.219Z,7.93
2023-08-02T12:17:02.493Z,6.32
2023-08-02T12:19:44.766Z,9.63
2023-08-02T12:22:13.679Z,9.70
2023-08-02T12:24:40.462Z,8.27
2023-08-02T12:27:22.864Z,6.95
2023-08-02T12:30:07.320Z,6.50
2023-08-02T12:32:33.963Z,9.18
2023-08-02T12:35:12.346Z,7.20
2023-08-02T12:37:39.623Z,9.38
2023-08-02T12:40:07.094Z,5.63
2023-08-02T12:42:35.902Z,6.18
2023-08-02T12:45:16.523Z,10.45
2023-08-02T12:47:44.250Z,6.63
2023-08-02T12:50:11.212Z,7.65
2023-08-02T12:52:37.877Z,8.02
2023-08-02T12:55:04.885Z,7.85
2023-08-02T12:57:31.573Z,7.35
2023-08-02T13:00:00.389Z,13.77
2023-08-02T13:02:27.401Z,16.02
2023-08-02T13:04:54.061Z,12.57
2023-08-02T13:07:21.234Z,8.25
2023-08-02T13:09:51.496Z,10.27
2023-08-02T13:12:24.290Z,8.77
2023-08-02T13:14:59.076Z,7.90
2023-08-02T13:17:25.878Z,8.35
2023-08-02T13:19:52.605Z,9.68
2023-08-02T13:22:19.307Z,10.48
2023-08-02T13:24:45.992Z,10.55
2023-08-02T13:27:12.627Z,8.93
2023-08-02T13:29:39.234Z,6.80
2023-08-02T13:32:06.035Z,4.93
2023-08-02T13:34:32.743Z,6.70
2023-08-02T13:36:59.448Z,8.23
2023-08-02T13:39:27.587Z,7.53
2023-08-02T13:41:54.243Z,7.40
2023-08-02T13:44:20.925Z,10.23
2023-08-02T13:46:47.648Z,9.20
2023-08-02T13:49:14.535Z,9.65
2023-08-02T13:51:41.455Z,11.68
2023-08-02T13:54:08.154Z,11.23
2023-08-02T13:56:34.762Z,9.07
2023-08-02T13:59:02.556Z,10.13
2023-08-02T14:01:31.102Z,11.15
2023-08-02T14:03:57.767Z,6.72
2023-08-02T14:06:24.706Z,6.80
2023-08-02T14:08:51.472Z,6.53
2023-08-02T14:11:18.481Z,8.57
2023-08-02T14:13:45.125Z,7.10
2023-08-02T14:16:11.752Z,4.47
2023-08-02T14:18:38.426Z,7.07
2023-08-02T14:21:05.142Z,6.72
2023-08-02T14:23:33.610Z,8.70
2023-08-02T14:26:00.319Z,9.63
2023-08-02T14:28:26.946Z,7.80
2023-08-02T14:30:53.643Z,4.90
2023-08-02T14:33:20.307Z,6.32
2023-08-02T14:35:46.923Z,7.50
2023-08-02T14:38:13.536Z,7.82
2023-08-02T14:40:40.169Z,6.43
2023-08-02T14:43:06.838Z,9.77
2023-08-02T14:45:33.502Z,8.23
2023-08-02T14:48:00.178Z,5.15
2023-08-02T14:50:27.900Z,6.28
2023-08-02T14:52:55.144Z,7.78
2023-08-02T14:55:21.944Z,8.52
2023-08-02T14:57:48.768Z,7.55
2023-08-02T15:00:15.770Z,10.25
2023-08-02T15:02:42.637Z,7.90
2023-08-02T15:05:09.712Z,7.60
2023-08-02T15:07:36.374Z,6.05
2023-08-02T15:10:03.242Z,5.85
2023-08-02T15:12:29.912Z,7.75
2023-08-02T15:14:56.598Z,5.22
2023-08-02T15:17:23.209Z,6.90
2023-08-02T15:19:49.848Z,5.97
2023-08-02T15:22:16.476Z,9.00
2023-08-02T15:24:43.083Z,6.00
2023-08-02T15:27:09.708Z,5.78
2023-08-02T15:29:36.369Z,6.68
2023-08-02T15:32:03.773Z,9.05
2023-08-02T15:34:30.567Z,5.78
2023-08-02T15:36:57.152Z,5.70
2023-08-02T15:39:23.827Z,7.72
2023-08-02T15:41:50.494Z,5.43
2023-08-02T15:44:17.107Z,5.32
2023-08-02T15:46:44.027Z,5.97
2023-08-02T15:49:10.953Z,9.20
2023-08-02T15:51:37.709Z,8.27
2023-08-02T15:54:04.517Z,6.65
2023-08-02T15:56:31.145Z,8.77
2023-08-02T15:58:57.803Z,10.30
2023-08-02T16:01:26.512Z,7.85
2023-08-02T16:03:53.156Z,8.15
2023-08-02T16:06:19.817Z,6.63
2023-08-02T16:08:47.118Z,7.07
2023-08-02T16:11:16.336Z,5.45
2023-08-02T16:13:42.943Z,7.55
2023-08-02T16:16:09.832Z,8.80
2023-08-02T16:18:36.465Z,6.75
2023-08-02T16:21:03.504Z,7.10
2023-08-02T16:23:30.314Z,8.48
2023-08-02T16:25:56.988Z,7.75
2023-08-02T16:28:23.634Z,7.38
2023-08-02T16:30:50.320Z,5.57
2023-08-02T16:33:16.957Z,7.40
2023-08-02T16:35:45.368Z,8.05
2023-08-02T16:38:15.506Z,6.97
2023-08-02T16:40:45.319Z,5.72
2023-08-02T16:43:13.143Z,5.15
2023-08-02T16:45:40.238Z,5.03
2023-08-02T16:48:07.562Z,6.10
2023-08-02T16:50:34.810Z,6.32
2023-08-02T16:53:01.880Z,7.30
2023-08-02T16:55:29.430Z,5.95
2023-08-02T16:57:57.540Z,6.65
2023-08-02T17:00:24.254Z,6.43
2023-08-02T17:02:51.207Z,7.78
2023-08-02T17:05:17.938Z,7.07
2023-08-02T17:07:45.636Z,7.95
2023-08-02T17:10:12.451Z,7.25
2023-08-02T17:12:39.096Z,7.28
2023-08-02T17:15:06.142Z,7.65
2023-08-02T17:17:33.224Z,7.35
2023-08-02T17:20:00.118Z,3.35
2023-08-02T17:22:26.950Z,5.38
2023-08-02T17:24:53.612Z,4.72
2023-08-02T17:27:20.191Z,5.68
2023-08-02T17:29:46.862Z,5.60
2023-08-02T17:32:13.592Z,4.15
2023-08-02T17:34:40.262Z,4.82
2023-08-02T17:37:06.897Z,5.20
2023-08-02T17:39:33.508Z,5.70
2023-08-02T17:42:02.854Z,4.05
2023-08-02T17:44:29.590Z,5.00
2023-08-02T17:46:56.245Z,5.80
2023-08-02T17:49:22.898Z,7.82
2023-08-02T17:51:49.556Z,4.22
2023-08-02T17:54:16.190Z,4.90
2023-08-02T17:56:42.808Z,4.45
2023-08-02T17:59:09.518Z,5.60
2023-08-02T18:01:36.238Z,9.05
2023-08-02T18:04:02.863Z,6.53
2023-08-02T18:06:30.778Z,4.95
2023-08-02T18:08:57.511Z,6.53
2023-08-02T18:11:24.306Z,6.50
2023-08-02T18:13:50.932Z,4.57
2023-08-02T18:16:17.731Z,7.50
2023-08-02T18:18:44.562Z,5.22
2023-08-02T18:21:12.962Z,4.82
2023-08-02T18:23:40.060Z,4.03
2023-08-02T18:26:12.552Z,4.47
2023-08-02T18:28:46.817Z,4.18
2023-08-02T18:31:18.153Z,5.53
2023-08-02T18:33:46.494Z,5.25
2023-08-02T18:36:15.043Z,4.88
2023-08-02T18:38:43.078Z,6.45
2023-08-02T18:41:24.315Z,4.60
2023-08-02T18:43:52.413Z,7.05
2023-08-02T18:46:22.413Z,5.45
2023-08-02T18:48:53.496Z,5.30
2023-08-02T18:51:22.725Z,4.18
2023-08-02T18:53:51.178Z,5.53
2023-08-02T18:56:19.590Z,5.50
2023-08-02T18:58:48.491Z,4.75
2023-08-02T19:01:15.706Z,5.15
2023-08-02T19:03:42.809Z,3.40
2023-08-02T19:06:09.548Z,4.78
2023-08-02T19:08:38.937Z,5.72
2023-08-02T19:11:17.254Z,6.05
2023-08-02T19:13:49.778Z,6.32
2023-08-02T19:16:16.721Z,5.10
2023-08-02T19:18:43.629Z,4.57
2023-08-02T19:21:14.414Z,5.85
2023-08-02T19:23:44.981Z,4.88
2023-08-02T19:26:17.992Z,5.35
2023-08-02T19:28:45.597Z,6.38
2023-08-02T19:31:12.328Z,6.25
2023-08-02T19:33:45.676Z,7.55
2023-08-02T19:36:23.138Z,5.85
2023-08-02T19:38:50.397Z,6.18
2023-08-02T19:41:26.279Z,6.53
2023-08-02T19:43:52.985Z,8.23
2023-08-02T19:46:21.498Z,8.13
2023-08-02T19:48:48.342Z,6.25
2023-08-02T19:51:15.034Z,6.50
2023-08-02T19:53:48.232Z,5.95
2023-08-02T19:56:20.940Z,7.63
2023-08-02T19:58:47.780Z,7.03
2023-08-02T20:01:14.800Z,7.07
2023-08-02T20:03:41.646Z,8.77
2023-08-02T20:06:09.229Z,6.63
2023-08-02T20:08:36.347Z,5.05
2023-08-02T20:11:05.824Z,7.00
2023-08-02T20:13:43.657Z,7.80
2023-08-02T20:16:33.506Z,7.78
2023-08-02T20:19:01.323Z,7.95
2023-08-02T20:21:27.932Z,9.52
2023-08-02T20:23:57.916Z,6.53
2023-08-02T20:26:26.498Z,7.30
2023-08-02T20:28:56.992Z,7.70
2023-08-02T20:31:33.229Z,7.93
2023-08-02T20:33:59.991Z,7.60
2023-08-02T20:36:26.640Z,7.60
2023-08-02T20:38:55.551Z,7.25
2023-08-02T20:41:27.625Z,7.30
2023-08-02T20:43:56.420Z,5.77
2023-08-02T20:46:28.993Z,6.95
2023-08-02T20:49:00.858Z,6.35
2023-08-02T20:51:31.251Z,5.20
2023-08-02T20:53:59.316Z,6.78
2023-08-02T20:56:26.183Z,5.53
2023-08-02T20:58:52.965Z,6.65
2023-08-02T21:01:19.731Z,8.23
2023-08-02T21:03:48.126Z,7.53
2023-08-02T21:06:15.172Z,5.93
2023-08-02T21:08:43.025Z,5.30
2023-08-02T21:11:10.841Z,5.45
2023-08-02T21:13:37.428Z,4.45
2023-08-02T21:16:04.374Z,5.22
2023-08-02T21:18:33.213Z,7.00
2023-08-02T21:21:00.724Z,6.00
2023-08-02T21:23:27.733Z,7.85
2023-08-02T21:25:58.998Z,10.57
2023-08-02T21:28:28.306Z,6.50
2023-08-02T21:31:00.277Z,7.95
2023-08-02T21:33:31.411Z,7.70
2023-08-02T21:35:59.651Z,10.75
2023-08-02T21:38:29.873Z,9.85
2023-08-02T21:40:59.499Z,9.68
2023-08-02T21:43:28.220Z,11.32
2023-08-02T21:45:58.634Z,9.55
2023-08-02T21:48:25.393Z,11.85
2023-08-02T21:50:52.057Z,9.68
2023-08-02T21:53:23.785Z,9.65
2023-08-02T21:55:53.949Z,10.23
2023-08-02T21:58:28.742Z,9.98
2023-08-02T22:00:55.761Z,11.38
2023-08-02T22:03:22.579Z,9.50
2023-08-02T22:05:49.382Z,9.82
2023-08-02T22:08:28.195Z,9.95
2023-08-02T22:10:54.826Z,9.02
2023-08-02T22:13:21.694Z,9.82
2023-08-02T22:15:48.318Z,11.13
2023-08-02T22:18:16.758Z,9.73
2023-08-02T22:20:43.989Z,8.82
2023-08-02T22:23:11.228Z,10.15
2023-08-02T22:25:38.131Z,8.40
2023-08-02T22:28:05.732Z,8.63
2023-08-02T22:30:32.414Z,9.50
2023-08-02T22:32:59.470Z,8.50
2023-08-02T22:35:26.301Z,8.77
2023-08-02T22:37:52.916Z,8.48
2023-08-02T22:40:19.610Z,12.27
2023-08-02T22:42:46.189Z,11.38
2023-08-02T22:45:12.783Z,8.77
2023-08-02T22:47:39.441Z,9.48
2023-08-02T22:52:36.166Z,10.30
2023-08-02T22:55:03.103Z,9.65
2023-08-02T22:57:32.773Z,11.35
2023-08-02T22:59:59.730Z,9.25
2023-08-02T23:02:34.144Z,9.93
2023-08-02T23:05:02.365Z,9.88
2023-08-02T23:07:33.773Z,11.52
2023-08-02T23:10:03.261Z,10.35
2023-08-02T23:12:39.237Z,10.23
2023-08-02T23:15:18.074Z,9.55
2023-08-02T23:17:44.709Z,9.23
2023-08-02T23:20:35.329Z,8.63
2023-08-02T23:23:02.676Z,10.85
2023-08-02T23:25:29.473Z,9.00
2023-08-02T23:27:56.467Z,9.98
2023-08-02T23:30:28.426Z,9.50
2023-08-02T23:32:55.205Z,11.10
2023-08-02T23:35:21.927Z,9.90
2023-08-02T23:37:52.465Z,9.57
2023-08-02T23:40:19.122Z,9.80
2023-08-02T23:42:45.741Z,8.27
2023-08-02T23:45:12.374Z,8.98
2023-08-02T23:47:38.965Z,11.55
2023-08-02T23:50:05.992Z,8.82
2023-08-02T23:52:32.575Z,10.30
2023-08-02T23:54:59.158Z,11.15
2023-08-02T23:57:25.767Z,9.95
2023-08-02T23:59:52.368Z,9.98
